createdAt,value
2023-01-17T00:01:30.599Z,93678.84
2023-01-17T00:04:15.522Z,93688.06
2023-01-17T00:07:02.746Z,93691.00
2023-01-17T00:09:48.354Z,93691.03
2023-01-17T00:12:16.446Z,93693.84
2023-01-17T00:14:45.434Z,93683.72
2023-01-17T00:17:13.875Z,93670.19
2023-01-17T00:19:59.687Z,93669.34
2023-01-17T00:22:48.167Z,93672.91
2023-01-17T00:25:35.165Z,93670.94
2023-01-17T00:28:02.416Z,93672.19
2023-01-17T00:30:29.510Z,93673.78
2023-01-17T00:32:56.534Z,93666.72
2023-01-17T00:35:25.501Z,93675.63
2023-01-17T00:38:02.652Z,93685.78
2023-01-17T00:40:29.636Z,93690.59
2023-01-17T00:43:14.930Z,93688.94
2023-01-17T00:46:01.811Z,93680.78
2023-01-17T00:48:47.261Z,93678.28
2023-01-17T00:51:33.237Z,93679.97
2023-01-17T00:54:20.234Z,93667.88
2023-01-17T00:57:05.975Z,93666.34
2023-01-17T00:59:51.477Z,93668.09
2023-01-17T01:02:37.140Z,93668.44
2023-01-17T01:05:23.291Z,93660.53
2023-01-17T01:08:09.230Z,93658.97
2023-01-17T01:10:56.071Z,93649.91
2023-01-17T01:13:43.825Z,93643.69
2023-01-17T01:16:29.838Z,93650.81
2023-01-17T01:19:15.512Z,93645.34
2023-01-17T01:22:43.775Z,93636.78
2023-01-17T01:25:29.050Z,93633.16
2023-01-17T01:28:24.105Z,93634.84
2023-01-17T01:31:09.590Z,93643.81
2023-01-17T01:33:37.675Z,93636.59
2023-01-17T01:36:09.191Z,93640.22
2023-01-17T01:38:37.241Z,93636.59
2023-01-17T01:41:05.490Z,93645.06
2023-01-17T01:43:45.688Z,93647.09
2023-01-17T01:46:17.407Z,93643.75
2023-01-17T01:48:51.209Z,93648.63
2023-01-17T01:51:23.840Z,93645.00
2023-01-17T01:53:55.474Z,93636.53
2023-01-17T01:56:24.424Z,93638.34
2023-01-17T01:58:54.771Z,93639.25
2023-01-17T02:01:22.873Z,93640.97
2023-01-17T02:03:51.425Z,93639.81
2023-01-17T02:06:30.340Z,93634.41
2023-01-17T02:09:03.592Z,93637.50
2023-01-17T02:11:32.964Z,93632.81
2023-01-17T02:14:02.507Z,93635.53
2023-01-17T02:16:45.485Z,93627.16
2023-01-17T02:19:45.938Z,93625.63
2023-01-17T02:22:34.557Z,93615.22
2023-01-17T02:25:26.665Z,93602.72
2023-01-17T02:28:11.290Z,93596.69
2023-01-17T02:30:45.573Z,93596.06
2023-01-17T02:33:23.027Z,93592.44
2023-01-17T02:35:59.634Z,93585.09
2023-01-17T02:38:38.295Z,93576.03
2023-01-17T02:41:10.269Z,93572.59
2023-01-17T02:43:39.723Z,93564.34
2023-01-17T02:46:09.980Z,93564.34
2023-01-17T02:48:39.822Z,93565.06
2023-01-17T02:51:24.877Z,93562.09
2023-01-17T02:54:17.827Z,93555.19
2023-01-17T02:56:54.830Z,93559.91
2023-01-17T02:59:38.905Z,93544.03
2023-01-17T03:02:16.202Z,93551.25
2023-01-17T03:04:50.563Z,93544.84
2023-01-17T03:07:22.659Z,93540.44
2023-01-17T03:09:53.672Z,93533.28
2023-01-17T03:12:22.060Z,93535.09
2023-01-17T03:14:50.095Z,93537.72
2023-01-17T03:17:19.716Z,93534.66
2023-01-17T03:19:47.797Z,93532.56
2023-01-17T03:22:15.972Z,93528.00
2023-01-17T03:24:44.073Z,93521.88
2023-01-17T03:27:12.069Z,93520.34
2023-01-17T03:29:40.115Z,93514.41
2023-01-17T03:32:08.085Z,93511.13
2023-01-17T03:34:37.436Z,93506.00
2023-01-17T03:37:05.423Z,93508.03
2023-01-17T03:39:33.426Z,93508.50
2023-01-17T03:42:01.451Z,93499.88
2023-01-17T03:44:29.477Z,93494.91
2023-01-17T03:46:57.617Z,93484.44
2023-01-17T03:49:25.725Z,93481.28
2023-01-17T03:51:55.167Z,93484.88
2023-01-17T03:54:23.219Z,93478.72
2023-01-17T03:56:51.675Z,93477.41
2023-01-17T03:59:19.607Z,93473.44
2023-01-17T04:01:47.750Z,93468.69
2023-01-17T04:04:16.131Z,93446.94
2023-01-17T04:06:44.173Z,93444.78
2023-01-17T04:09:13.544Z,93433.19
2023-01-17T04:11:41.491Z,93429.34
2023-01-17T04:14:09.467Z,93425.78
2023-01-17T04:16:39.393Z,93417.63
2023-01-17T04:19:07.363Z,93407.63
2023-01-17T04:21:35.316Z,93406.44
2023-01-17T04:24:03.319Z,93415.88
2023-01-17T04:26:32.691Z,93410.16
2023-01-17T04:29:00.632Z,93410.56
2023-01-17T04:31:28.677Z,93410.91
2023-01-17T04:33:56.718Z,93398.94
2023-01-17T04:36:24.806Z,93397.25
2023-01-17T04:38:52.907Z,93395.66
2023-01-17T04:41:21.024Z,93391.72
2023-01-17T04:43:50.410Z,93382.53
2023-01-17T04:46:18.630Z,93382.66
2023-01-17T04:48:46.663Z,93364.44
2023-01-17T04:51:14.605Z,93351.41
2023-01-17T04:53:42.629Z,93352.09
2023-01-17T04:56:10.750Z,93341.69
2023-01-17T04:58:38.713Z,93329.22
2023-01-17T05:01:10.002Z,93313.63
2023-01-17T05:03:38.301Z,93307.50
2023-01-17T05:06:06.576Z,93297.25
2023-01-17T05:08:34.727Z,93289.91
2023-01-17T05:11:02.830Z,93282.56
2023-01-17T05:13:30.938Z,93290.94
2023-01-17T05:15:59.583Z,93294.00
2023-01-17T05:18:29.079Z,93288.06
2023-01-17T05:21:02.576Z,93285.19
2023-01-17T05:23:30.704Z,93283.47
2023-01-17T05:25:58.686Z,93287.50
2023-01-17T05:28:26.797Z,93282.81
2023-01-17T05:30:54.789Z,93287.97
2023-01-17T05:33:22.791Z,93292.66
2023-01-17T05:35:52.256Z,93294.19
2023-01-17T05:38:20.306Z,93295.28
2023-01-17T05:40:48.295Z,93285.44
2023-01-17T05:43:16.616Z,93270.22
2023-01-17T05:45:44.625Z,93281.44
2023-01-17T05:48:12.756Z,93289.09
2023-01-17T05:50:40.862Z,93309.59
2023-01-17T05:53:12.721Z,93324.72
2023-01-17T05:55:41.608Z,93316.31
2023-01-17T05:58:14.844Z,93319.19
2023-01-17T06:00:43.398Z,93311.50
2023-01-17T06:03:11.716Z,93320.81
2023-01-17T06:05:39.851Z,93316.69
2023-01-17T06:08:08.514Z,93317.25
2023-01-17T06:10:37.995Z,93299.81
2023-01-17T06:13:08.873Z,93291.19
2023-01-17T06:15:38.044Z,93291.38
2023-01-17T06:18:07.522Z,93274.53
2023-01-17T06:20:35.670Z,93272.63
2023-01-17T06:23:05.017Z,93283.13
2023-01-17T06:25:39.249Z,93286.38
2023-01-17T06:28:07.604Z,93290.75
2023-01-17T06:30:35.835Z,93275.94
2023-01-17T06:33:03.878Z,93265.53
2023-01-17T06:35:32.067Z,93260.34
2023-01-17T06:38:00.585Z,93254.63
2023-01-17T06:40:29.874Z,93261.22
2023-01-17T06:43:02.713Z,93268.41
2023-01-17T06:45:31.412Z,93256.53
2023-01-17T06:48:00.777Z,93261.72
2023-01-17T06:50:28.900Z,93260.94
2023-01-17T06:52:57.744Z,93250.03
2023-01-17T06:55:28.761Z,93256.25
2023-01-17T06:57:57.350Z,93246.38
2023-01-17T07:00:27.697Z,93233.56
2023-01-17T07:02:55.859Z,93227.91
2023-01-17T07:05:23.998Z,93223.22
2023-01-17T07:07:52.014Z,93223.41
2023-01-17T07:10:20.104Z,93219.59
2023-01-17T07:12:48.187Z,93220.16
2023-01-17T07:15:16.250Z,93223.50
2023-01-17T07:17:45.921Z,93216.53
2023-01-17T07:20:14.629Z,93213.25
2023-01-17T07:22:46.031Z,93215.94
2023-01-17T07:25:14.007Z,93215.25
2023-01-17T07:27:42.083Z,93212.69
2023-01-17T07:30:11.535Z,93208.84
2023-01-17T07:32:39.753Z,93214.09
2023-01-17T07:35:10.144Z,93207.69
2023-01-17T07:37:39.142Z,93209.78
2023-01-17T07:40:08.384Z,93192.28
2023-01-17T07:42:36.502Z,93196.97
2023-01-17T07:45:04.916Z,93214.53
2023-01-17T07:47:34.069Z,93213.00
2023-01-17T07:50:02.881Z,93218.66
2023-01-17T07:52:32.389Z,93210.44
2023-01-17T07:55:00.404Z,93230.25
2023-01-17T07:57:28.508Z,93228.34
2023-01-17T07:59:56.445Z,93229.59
2023-01-17T08:02:25.155Z,93234.88
2023-01-17T08:04:53.137Z,93241.59
2023-01-17T08:07:21.139Z,93244.38
2023-01-17T08:09:50.744Z,93250.22
2023-01-17T08:12:18.975Z,93245.72
2023-01-17T08:14:47.055Z,93250.97
2023-01-17T08:17:17.734Z,93255.09
2023-01-17T08:19:45.921Z,93253.94
2023-01-17T08:22:13.993Z,93249.81
2023-01-17T08:24:42.217Z,93254.41
2023-01-17T08:27:12.086Z,93248.66
2023-01-17T08:29:46.916Z,93239.09
2023-01-17T08:32:14.935Z,93247.91
2023-01-17T08:34:43.548Z,93257.88
2023-01-17T08:37:11.566Z,93259.59
2023-01-17T08:39:39.786Z,93252.13
2023-01-17T08:42:08.175Z,93249.06
2023-01-17T08:44:38.678Z,93244.94
2023-01-17T08:47:07.079Z,93247.25
2023-01-17T08:49:35.040Z,93250.50
2023-01-17T08:52:03.014Z,93254.63
2023-01-17T08:54:30.976Z,93248.28
2023-01-17T08:56:59.009Z,93253.00
2023-01-17T08:59:27.055Z,93265.53
2023-01-17T09:01:58.407Z,93261.69
2023-01-17T09:04:26.649Z,93262.34
2023-01-17T09:06:54.767Z,93258.91
2023-01-17T09:09:22.865Z,93248.78
2023-01-17T09:11:50.884Z,93246.38
2023-01-17T09:14:19.236Z,93256.53
2023-01-17T09:16:48.654Z,93241.03
2023-01-17T09:19:18.127Z,93235.09
2023-01-17T09:21:46.184Z,93236.81
2023-01-17T09:24:14.382Z,93232.41
2023-01-17T09:26:42.342Z,93224.91
2023-01-17T09:29:10.393Z,93219.72
2023-01-17T09:31:38.339Z,93215.13
2023-01-17T09:34:06.272Z,93222.41
2023-01-17T09:36:35.758Z,93222.78
2023-01-17T09:39:05.452Z,93218.94
2023-01-17T09:41:35.873Z,93206.72
2023-01-17T09:44:24.627Z,93212.31
2023-01-17T09:46:54.812Z,93208.03
2023-01-17T09:49:33.754Z,93210.25
2023-01-17T09:52:04.363Z,93218.50
2023-01-17T09:54:36.876Z,93209.69
2023-01-17T09:57:16.240Z,93216.50
2023-01-17T10:00:03.005Z,93216.09
2023-01-17T10:02:46.851Z,93215.66
2023-01-17T10:05:36.638Z,93196.94
2023-01-17T10:08:16.137Z,93201.88
2023-01-17T10:10:54.004Z,93201.50
2023-01-17T10:13:37.671Z,93203.63
2023-01-17T10:16:29.223Z,93215.25
2023-01-17T10:19:13.269Z,93213.19
2023-01-17T10:21:55.826Z,93205.78
2023-01-17T10:24:49.959Z,93198.81
2023-01-17T10:27:25.527Z,93184.50
2023-01-17T10:29:54.221Z,93184.38
2023-01-17T10:32:26.528Z,93164.22
2023-01-17T10:34:54.929Z,93160.41
2023-01-17T10:37:26.967Z,93164.84
2023-01-17T10:40:03.745Z,93163.59
2023-01-17T10:42:43.827Z,93156.59
2023-01-17T10:45:20.876Z,93147.56
2023-01-17T10:47:59.156Z,93139.03
2023-01-17T10:50:29.960Z,93121.31
2023-01-17T10:53:07.789Z,93102.97
2023-01-17T10:55:45.212Z,93099.47
2023-01-17T10:58:14.125Z,93099.78
2023-01-17T11:00:49.038Z,93085.31
2023-01-17T11:03:20.875Z,93096.16
2023-01-17T11:06:16.409Z,93093.88
2023-01-17T11:08:51.992Z,93100.09
2023-01-17T11:11:23.207Z,93104.41
2023-01-17T11:13:53.295Z,93106.03
2023-01-17T11:16:25.491Z,93109.09
2023-01-17T11:19:08.641Z,93105.41
2023-01-17T11:21:39.211Z,93107.84
2023-01-17T11:24:12.695Z,93106.59
2023-01-17T11:26:49.581Z,93104.75
2023-01-17T11:29:31.440Z,93089.34
2023-01-17T11:32:26.163Z,93079.44
2023-01-17T11:35:16.590Z,93064.34
2023-01-17T11:37:59.634Z,93047.44
2023-01-17T11:40:30.767Z,93065.72
2023-01-17T11:43:19.773Z,93059.19
2023-01-17T11:46:00.877Z,93056.44
2023-01-17T11:48:36.063Z,93049.41
2023-01-17T11:51:05.409Z,93047.13
2023-01-17T11:53:36.296Z,93042.72
2023-01-17T11:56:07.109Z,93044.88
2023-01-17T11:58:39.722Z,93042.72
2023-01-17T12:01:34.232Z,93061.94
2023-01-17T12:04:29.873Z,93049.41
2023-01-17T12:07:10.950Z,93050.81
2023-01-17T12:09:43.902Z,93051.72
2023-01-17T12:12:39.746Z,93057.19
2023-01-17T12:15:22.971Z,93047.72
2023-01-17T12:18:09.119Z,93043.44
2023-01-17T12:20:47.408Z,93038.69
2023-01-17T12:23:28.812Z,93032.59
2023-01-17T12:26:08.138Z,93035.34
2023-01-17T12:28:58.754Z,93049.53
2023-01-17T12:31:35.311Z,93043.13
2023-01-17T12:34:15.564Z,93030.31
2023-01-17T12:36:49.670Z,93028.78
2023-01-17T12:39:26.264Z,93038.69
2023-01-17T12:42:02.025Z,93027.97
2023-01-17T12:44:41.281Z,93035.75
2023-01-17T12:47:11.644Z,93050.38
2023-01-17T12:49:47.026Z,93051.88
2023-01-17T12:52:22.743Z,93045.13
2023-01-17T12:54:54.679Z,93050.44
2023-01-17T12:57:26.587Z,93046.63
2023-01-17T13:00:03.102Z,93051.66
2023-01-17T13:02:38.993Z,93053.63
2023-01-17T13:05:12.995Z,93061.38
2023-01-17T13:07:47.575Z,93052.91
2023-01-17T13:10:35.401Z,93057.72
2023-01-17T13:13:15.463Z,93054.25
2023-01-17T13:15:44.893Z,93067.03
2023-01-17T13:18:22.840Z,93062.84
2023-01-17T13:21:06.202Z,93054.28
2023-01-17T13:23:56.008Z,93053.13
2023-01-17T13:26:39.284Z,93048.53
2023-01-17T13:29:17.973Z,93041.31
2023-01-17T13:31:48.503Z,93032.00
2023-01-17T13:34:50.100Z,93032.28
2023-01-17T13:37:57.186Z,93026.75
2023-01-17T13:40:37.224Z,93012.25
2023-01-17T13:43:07.332Z,93007.94
2023-01-17T13:45:37.366Z,93026.22
2023-01-17T13:48:27.850Z,93023.94
2023-01-17T13:50:58.363Z,93019.66
2023-01-17T13:53:58.862Z,93016.59
2023-01-17T13:56:34.739Z,93021.00
2023-01-17T13:59:27.560Z,93017.34
2023-01-17T14:01:56.622Z,93017.63
2023-01-17T14:04:26.409Z,93020.53
2023-01-17T14:07:01.226Z,93007.91
2023-01-17T14:09:42.497Z,93013.66
2023-01-17T14:12:31.872Z,93004.03
2023-01-17T14:15:02.375Z,93017.19
2023-01-17T14:17:48.187Z,93020.56
2023-01-17T14:20:58.677Z,93016.63
2023-01-17T14:23:36.483Z,93014.63
2023-01-17T14:26:20.297Z,93003.97
2023-01-17T14:28:48.360Z,93005.03
2023-01-17T14:31:19.126Z,93028.97
2023-01-17T14:33:47.576Z,93023.94
2023-01-17T14:36:25.006Z,93027.59
2023-01-17T14:38:54.644Z,93014.63
2023-01-17T14:41:25.746Z,93012.47
2023-01-17T14:43:54.331Z,93017.81
2023-01-17T14:46:28.556Z,93017.81
2023-01-17T14:49:02.252Z,93025.72
2023-01-17T14:51:30.357Z,93018.56
2023-01-17T14:54:02.353Z,93023.31
2023-01-17T14:56:32.098Z,93014.59
2023-01-17T14:59:14.463Z,93017.75
2023-01-17T15:01:45.025Z,93025.06
2023-01-17T15:04:26.400Z,93011.91
2023-01-17T15:06:55.821Z,93013.88
2023-01-17T15:09:28.181Z,93014.56
2023-01-17T15:11:58.091Z,93022.47
2023-01-17T15:14:29.076Z,93020.69
2023-01-17T15:16:57.535Z,93007.59
2023-01-17T15:19:25.596Z,93017.09
2023-01-17T15:21:55.705Z,93022.00
2023-01-17T15:24:28.855Z,93031.59
2023-01-17T15:26:57.425Z,93030.25
2023-01-17T15:29:27.564Z,93025.97
2023-01-17T15:31:58.286Z,93023.69
2023-01-17T15:34:31.811Z,93024.31
2023-01-17T15:37:01.756Z,93020.06
2023-01-17T15:39:34.278Z,93001.31
2023-01-17T15:42:06.497Z,92991.41
2023-01-17T15:44:48.061Z,92983.34
2023-01-17T15:47:29.954Z,92985.03
2023-01-17T15:49:58.381Z,92999.47
2023-01-17T15:52:26.754Z,93008.31
2023-01-17T15:55:00.490Z,93017.63
2023-01-17T15:57:30.648Z,93002.69
2023-01-17T16:00:07.080Z,93003.09
2023-01-17T16:02:43.307Z,93006.09
2023-01-17T16:05:43.804Z,93014.16
2023-01-17T16:08:38.754Z,93010.81
2023-01-17T16:11:12.029Z,93025.31
2023-01-17T16:13:42.361Z,93017.44
2023-01-17T16:16:23.167Z,93020.34
2023-01-17T16:18:59.865Z,93024.19
2023-01-17T16:21:29.442Z,93030.88
2023-01-17T16:23:58.166Z,93035.94
2023-01-17T16:26:29.268Z,93039.78
2023-01-17T16:28:57.676Z,93035.78
2023-01-17T16:31:25.855Z,93056.25
2023-01-17T16:33:54.070Z,93064.81
2023-01-17T16:36:23.119Z,93069.25
2023-01-17T16:38:53.253Z,93066.81
2023-01-17T16:41:21.819Z,93072.75
2023-01-17T16:43:59.379Z,93087.09
2023-01-17T16:46:27.860Z,93088.31
2023-01-17T16:48:56.191Z,93092.13
2023-01-17T16:51:24.282Z,93103.69
2023-01-17T16:53:52.506Z,93104.28
2023-01-17T16:56:21.053Z,93107.34
2023-01-17T16:58:49.207Z,93106.28
2023-01-17T17:01:21.358Z,93114.53
2023-01-17T17:03:49.808Z,93126.88
2023-01-17T17:06:18.079Z,93134.66
2023-01-17T17:08:46.131Z,93127.97
2023-01-17T17:11:16.598Z,93132.38
2023-01-17T17:13:45.896Z,93139.84
2023-01-17T17:16:20.190Z,93145.19
2023-01-17T17:18:55.128Z,93151.16
2023-01-17T17:21:23.335Z,93149.63
2023-01-17T17:23:56.782Z,93145.50
2023-01-17T17:26:26.836Z,93142.91
2023-01-17T17:28:55.778Z,93138.19
2023-01-17T17:31:25.462Z,93135.00
2023-01-17T17:33:53.576Z,93132.84
2023-01-17T17:36:21.622Z,93147.81
2023-01-17T17:38:51.853Z,93152.41
2023-01-17T17:41:21.810Z,93160.03
2023-01-17T17:43:51.303Z,93161.56
2023-01-17T17:46:20.794Z,93155.31
2023-01-17T17:48:50.585Z,93146.59
2023-01-17T17:51:27.033Z,93149.03
2023-01-17T17:53:56.265Z,93143.69
2023-01-17T17:56:24.914Z,93152.06
2023-01-17T17:58:53.125Z,93149.19
2023-01-17T18:01:23.044Z,93149.94
2023-01-17T18:03:52.755Z,93159.41
2023-01-17T18:06:21.273Z,93158.81
2023-01-17T18:08:49.426Z,93156.38
2023-01-17T18:11:20.308Z,93170.28
2023-01-17T18:13:50.526Z,93173.78
2023-01-17T18:16:20.665Z,93172.41
2023-01-17T18:18:51.464Z,93177.00
2023-01-17T18:21:23.843Z,93186.00
2023-01-17T18:23:54.853Z,93186.50
2023-01-17T18:26:24.580Z,93188.59
2023-01-17T18:28:54.136Z,93186.47
2023-01-17T18:31:24.266Z,93191.00
2023-01-17T18:33:52.509Z,93190.69
2023-01-17T18:36:23.501Z,93188.81
2023-01-17T18:38:52.131Z,93202.84
2023-01-17T18:41:21.695Z,93201.78
2023-01-17T18:43:49.916Z,93202.25
2023-01-17T18:46:19.481Z,93200.59
2023-01-17T18:48:47.886Z,93192.97
2023-01-17T18:51:18.611Z,93196.63
2023-01-17T18:53:48.694Z,93196.16
2023-01-17T18:56:20.175Z,93192.66
2023-01-17T18:58:50.317Z,93192.31
2023-01-17T19:01:20.532Z,93194.25
2023-01-17T19:03:51.839Z,93181.25
2023-01-17T19:06:21.986Z,93193.06
2023-01-17T19:08:52.630Z,93194.81
2023-01-17T19:11:21.920Z,93194.47
2023-01-17T19:13:50.409Z,93199.44
2023-01-17T19:16:21.142Z,93197.56
2023-01-17T19:18:49.680Z,93205.31
2023-01-17T19:21:19.783Z,93199.91
2023-01-17T19:23:48.228Z,93212.78
2023-01-17T19:26:20.138Z,93210.25
2023-01-17T19:28:49.485Z,93205.88
2023-01-17T19:31:20.476Z,93215.41
2023-01-17T19:33:49.766Z,93214.94
2023-01-17T19:36:20.666Z,93224.28
2023-01-17T19:39:02.877Z,93222.50
2023-01-17T19:41:34.791Z,93219.78
2023-01-17T19:44:04.638Z,93228.03
2023-01-17T19:46:33.141Z,93220.38
2023-01-17T19:49:01.761Z,93212.13
2023-01-17T19:51:30.069Z,93214.69
2023-01-17T19:53:59.242Z,93210.53
2023-01-17T19:56:28.092Z,93225.13
2023-01-17T19:59:01.174Z,93228.31
2023-01-17T20:01:31.674Z,93234.16
2023-01-17T20:04:01.069Z,93225.91
2023-01-17T20:06:35.235Z,93228.50
2023-01-17T20:09:04.267Z,93218.25
2023-01-17T20:11:32.421Z,93211.38
2023-01-17T20:14:01.969Z,93213.31
2023-01-17T20:16:31.546Z,93211.78
2023-01-17T20:19:00.273Z,93206.56
2023-01-17T20:21:30.441Z,93206.97
2023-01-17T20:24:00.317Z,93199.09
2023-01-17T20:26:35.019Z,93201.88
2023-01-17T20:29:10.662Z,93199.63
2023-01-17T20:31:40.270Z,93202.69
2023-01-17T20:34:10.683Z,93203.66
2023-01-17T20:36:39.403Z,93202.91
2023-01-17T20:39:09.046Z,93199.38
2023-01-17T20:41:39.800Z,93207.31
2023-01-17T20:44:12.827Z,93211.31
2023-01-17T20:46:42.111Z,93212.22
2023-01-17T20:49:15.054Z,93217.19
2023-01-17T20:51:44.464Z,93215.44
2023-01-17T20:54:14.350Z,93213.47
2023-01-17T20:56:42.783Z,93209.69
2023-01-17T20:59:15.108Z,93203.31
2023-01-17T21:01:44.934Z,93202.50
2023-01-17T21:04:14.906Z,93199.19
2023-01-17T21:06:44.033Z,93204.72
2023-01-17T21:09:14.306Z,93198.66
2023-01-17T21:11:42.554Z,93195.06
2023-01-17T21:14:10.772Z,93191.41
2023-01-17T21:16:40.564Z,93176.47
2023-01-17T21:19:12.010Z,93174.34
2023-01-17T21:21:40.500Z,93187.19
2023-01-17T21:24:08.745Z,93186.00
2023-01-17T21:26:38.919Z,93194.56
2023-01-17T21:29:07.277Z,93197.81
2023-01-17T21:31:36.861Z,93197.97
2023-01-17T21:34:08.550Z,93209.28
2023-01-17T21:36:38.906Z,93213.88
2023-01-17T21:39:08.787Z,93220.13
2023-01-17T21:41:39.706Z,93219.66
2023-01-17T21:44:11.885Z,93228.47
2023-01-17T21:46:41.478Z,93233.66
2023-01-17T21:49:12.239Z,93231.19
2023-01-17T21:51:56.888Z,93238.34
2023-01-17T21:54:40.568Z,93242.75
2023-01-17T21:57:26.286Z,93239.38
2023-01-17T21:59:54.347Z,93249.81
2023-01-17T22:02:22.390Z,93259.41
2023-01-17T22:04:51.925Z,93252.06
2023-01-17T22:07:19.956Z,93272.66
2023-01-17T22:09:48.068Z,93274.78
2023-01-17T22:12:16.272Z,93280.66
2023-01-17T22:14:44.259Z,93282.84
2023-01-17T22:17:12.351Z,93288.22
2023-01-17T22:19:40.341Z,93297.03
2023-01-17T22:22:09.780Z,93295.56
2023-01-17T22:24:37.911Z,93304.44
2023-01-17T22:27:09.947Z,93302.19
2023-01-17T22:29:38.274Z,93306.94
2023-01-17T22:32:06.422Z,93317.97
2023-01-17T22:34:34.400Z,93310.34
2023-01-17T22:37:04.067Z,93316.78
2023-01-17T22:39:33.425Z,93320.44
2023-01-17T22:42:01.450Z,93323.91
2023-01-17T22:44:29.547Z,93318.56
2023-01-17T22:46:57.808Z,93324.69
2023-01-17T22:49:25.989Z,93321.19
2023-01-17T22:51:54.014Z,93317.72
2023-01-17T22:54:22.564Z,93320.19
2023-01-17T22:56:51.924Z,93317.00
2023-01-17T22:59:19.988Z,93319.59
2023-01-17T23:01:48.149Z,93313.81
2023-01-17T23:04:17.299Z,93310.16
2023-01-17T23:06:45.487Z,93301.59
2023-01-17T23:09:17.337Z,93302.84
2023-01-17T23:11:47.445Z,93296.88
2023-01-17T23:14:19.398Z,93293.81
2023-01-17T23:17:06.360Z,93301.91
2023-01-17T23:19:36.556Z,93301.09
2023-01-17T23:22:19.443Z,93316.00
2023-01-17T23:24:52.688Z,93311.59
2023-01-17T23:27:40.803Z,93316.19
2023-01-17T23:30:13.412Z,93323.38
2023-01-17T23:32:45.267Z,93315.75
2023-01-17T23:35:13.327Z,93311.22
2023-01-17T23:37:59.003Z,93309.56
2023-01-17T23:40:27.179Z,93303.44
2023-01-17T23:43:12.503Z,93309.22
2023-01-17T23:45:42.110Z,93313.47
2023-01-17T23:48:10.856Z,93311.16
2023-01-17T23:50:39.845Z,93304.28
2023-01-17T23:53:08.538Z,93304.88
2023-01-17T23:55:38.593Z,93307.94
2023-01-17T23:58:07.629Z,93316.06
